createdAt,value
2018-12-29T00:00:04.205Z,77.20
2018-12-29T00:02:35.459Z,77.50
2018-12-29T00:05:05.073Z,77.20
2018-12-29T00:07:34.660Z,77.80
2018-12-29T00:10:04.598Z,77.60
2018-12-29T00:12:34.200Z,77.60
2018-12-29T00:15:04.455Z,77.70
2018-12-29T00:17:34.051Z,77.80
2018-12-29T00:20:03.746Z,77.10
2018-12-29T00:22:33.339Z,76.50
2018-12-29T00:25:02.948Z,76.80
2018-12-29T00:27:32.548Z,77.20
2018-12-29T00:30:02.178Z,76.70
2018-12-29T00:32:31.847Z,76.70
2018-12-29T00:35:02.520Z,76.60
2018-12-29T00:37:32.129Z,76.40
2018-12-29T00:40:01.740Z,76.30
2018-12-29T00:42:31.352Z,76.40
2018-12-29T00:45:02.631Z,77.40
2018-12-29T00:47:32.272Z,76.50
2018-12-29T00:50:01.875Z,76.50
2018-12-29T00:52:31.476Z,76.10
2018-12-29T00:55:01.176Z,76.50
2018-12-29T00:57:31.826Z,76.70
2018-12-29T01:00:01.453Z,75.90
2018-12-29T01:02:31.044Z,75.80
2018-12-29T01:05:00.661Z,75.40
2018-12-29T01:07:30.324Z,75.50
2018-12-29T01:09:59.920Z,75.40
2018-12-29T01:12:29.524Z,74.90
2018-12-29T01:14:59.123Z,75.00
2018-12-29T01:17:28.731Z,75.20
2018-12-29T01:19:58.329Z,75.10
2018-12-29T01:22:27.957Z,75.40
2018-12-29T01:24:57.557Z,75.60
2018-12-29T01:27:27.154Z,75.50
2018-12-29T01:29:56.767Z,75.20
2018-12-29T01:32:26.368Z,75.60
2018-12-29T01:34:55.973Z,75.80
2018-12-29T01:37:25.568Z,75.70
2018-12-29T01:39:55.184Z,75.90
2018-12-29T01:42:24.792Z,76.30
2018-12-29T01:44:54.398Z,75.90
2018-12-29T01:47:24.002Z,76.10
2018-12-29T01:49:53.616Z,76.10
2018-12-29T01:52:23.214Z,76.00
2018-12-29T01:54:52.832Z,76.20
2018-12-29T01:57:22.440Z,76.10
2018-12-29T01:59:52.076Z,76.10
2018-12-29T02:02:21.693Z,75.80
2018-12-29T02:04:51.277Z,75.90
2018-12-29T02:07:20.891Z,75.90
2018-12-29T02:09:50.487Z,76.00
2018-12-29T02:12:20.095Z,75.70
2018-12-29T02:14:49.683Z,75.80
2018-12-29T02:17:19.295Z,75.80
2018-12-29T02:19:48.893Z,75.70
2018-12-29T02:22:18.506Z,75.60
2018-12-29T02:24:49.063Z,75.30
2018-12-29T02:27:18.674Z,75.60
2018-12-29T02:29:48.267Z,75.20
2018-12-29T02:32:17.885Z,75.10
2018-12-29T02:34:47.483Z,75.50
2018-12-29T02:37:17.083Z,75.40
2018-12-29T02:39:46.692Z,75.70
2018-12-29T02:42:16.296Z,75.60
2018-12-29T02:44:51.966Z,75.20
2018-12-29T02:47:21.559Z,75.50
2018-12-29T02:49:51.173Z,75.80
2018-12-29T02:52:20.772Z,75.70
2018-12-29T02:54:50.379Z,75.60
2018-12-29T02:57:19.978Z,75.90
2018-12-29T02:59:49.593Z,75.40
2018-12-29T03:02:19.204Z,75.40
2018-12-29T03:04:48.827Z,75.30
2018-12-29T03:07:18.421Z,75.10
2018-12-29T03:09:48.032Z,75.20
2018-12-29T03:12:17.643Z,75.30
2018-12-29T03:14:47.238Z,75.20
2018-12-29T03:17:16.852Z,75.10
2018-12-29T03:19:46.439Z,74.80
2018-12-29T03:22:16.096Z,75.10
2018-12-29T03:24:45.726Z,74.70
2018-12-29T03:27:15.346Z,74.80
2018-12-29T03:29:44.947Z,74.90
2018-12-29T03:32:14.562Z,75.00
2018-12-29T03:34:44.155Z,75.00
2018-12-29T03:37:13.769Z,74.80
2018-12-29T03:39:43.362Z,74.90
2018-12-29T03:42:12.967Z,75.00
2018-12-29T03:44:42.562Z,75.00
2018-12-29T03:47:12.172Z,75.00
2018-12-29T03:49:41.784Z,75.30
2018-12-29T03:52:11.392Z,75.50
2018-12-29T03:54:41.375Z,75.60
2018-12-29T03:57:10.971Z,75.70
2018-12-29T03:59:40.589Z,75.90
2018-12-29T04:02:10.188Z,75.70
2018-12-29T04:04:39.795Z,76.00
2018-12-29T04:07:09.397Z,76.40
2018-12-29T04:09:39.004Z,76.40
2018-12-29T04:12:11.943Z,77.00
2018-12-29T04:14:41.923Z,77.70
2018-12-29T04:17:11.539Z,77.50
2018-12-29T04:19:41.147Z,78.10
2018-12-29T04:22:10.746Z,78.40
2018-12-29T04:24:41.427Z,78.10
2018-12-29T04:27:11.029Z,78.10
2018-12-29T04:29:40.647Z,78.90
2018-12-29T04:32:10.255Z,78.90
2018-12-29T04:34:39.881Z,78.60
2018-12-29T04:37:09.483Z,79.00
2018-12-29T04:39:39.085Z,78.70
2018-12-29T04:42:08.703Z,79.10
2018-12-29T04:44:38.312Z,79.70
2018-12-29T04:47:07.920Z,80.10
2018-12-29T04:49:37.524Z,81.00
2018-12-29T04:52:07.910Z,80.40
2018-12-29T04:54:37.614Z,81.00
2018-12-29T04:57:07.231Z,81.10
2018-12-29T04:59:36.828Z,80.60
2018-12-29T05:02:06.434Z,80.20
2018-12-29T05:04:36.111Z,80.60
2018-12-29T05:07:05.711Z,82.20
2018-12-29T05:09:35.330Z,81.20
2018-12-29T05:12:04.925Z,81.00
2018-12-29T05:14:34.536Z,81.50
2018-12-29T05:17:04.140Z,81.40
2018-12-29T05:19:33.752Z,82.30
2018-12-29T05:22:03.351Z,82.30
2018-12-29T05:24:32.963Z,82.30
2018-12-29T05:27:02.573Z,82.60
2018-12-29T05:29:32.185Z,83.60
2018-12-29T05:32:01.792Z,83.90
2018-12-29T05:34:31.419Z,83.90
2018-12-29T05:37:01.044Z,83.60
2018-12-29T05:39:30.651Z,83.50
2018-12-29T05:42:00.260Z,83.40
2018-12-29T05:44:29.861Z,83.50
2018-12-29T05:46:59.479Z,83.50
2018-12-29T05:49:29.088Z,83.20
2018-12-29T05:51:58.711Z,84.00
2018-12-29T05:54:28.312Z,84.10
2018-12-29T05:56:57.920Z,83.70
2018-12-29T05:59:27.522Z,84.30
2018-12-29T06:01:57.134Z,84.10
2018-12-29T06:04:26.742Z,84.30
2018-12-29T06:06:56.368Z,84.40
2018-12-29T06:09:25.966Z,84.20
2018-12-29T06:11:55.556Z,84.00
2018-12-29T06:14:25.166Z,84.10
2018-12-29T06:16:54.770Z,84.10
2018-12-29T06:19:24.392Z,83.90
2018-12-29T06:21:53.992Z,83.80
2018-12-29T06:24:23.611Z,83.20
2018-12-29T06:26:53.211Z,83.20
2018-12-29T06:29:22.819Z,83.20
2018-12-29T06:31:52.422Z,83.90
2018-12-29T06:34:22.043Z,83.90
2018-12-29T06:36:51.651Z,84.30
2018-12-29T06:39:21.267Z,84.20
2018-12-29T06:41:50.887Z,84.60
2018-12-29T06:44:20.484Z,84.90
2018-12-29T06:46:50.103Z,85.20
2018-12-29T06:49:19.711Z,85.00
2018-12-29T06:51:49.315Z,85.30
2018-12-29T06:54:18.916Z,85.50
2018-12-29T06:56:48.522Z,85.80
2018-12-29T06:59:18.121Z,85.70
2018-12-29T07:01:47.725Z,85.90
2018-12-29T07:04:17.315Z,86.30
2018-12-29T07:06:46.928Z,86.10
2018-12-29T07:09:16.533Z,86.80
2018-12-29T07:11:46.149Z,87.00
2018-12-29T07:14:15.747Z,87.00
2018-12-29T07:16:45.360Z,87.40
2018-12-29T07:19:14.967Z,87.40
2018-12-29T07:21:44.561Z,87.40
2018-12-29T07:24:14.164Z,87.00
2018-12-29T07:26:43.769Z,86.80
2018-12-29T07:29:13.394Z,87.00
2018-12-29T07:31:42.989Z,87.10
2018-12-29T07:34:12.599Z,87.30
2018-12-29T07:36:42.214Z,87.10
2018-12-29T07:39:11.829Z,87.10
2018-12-29T07:41:41.428Z,86.60
2018-12-29T07:44:11.047Z,86.80
2018-12-29T07:46:40.661Z,87.20
2018-12-29T07:49:10.261Z,87.30
2018-12-29T07:51:39.875Z,86.90
2018-12-29T07:54:09.476Z,86.90
2018-12-29T07:56:39.118Z,87.00
2018-12-29T07:59:08.703Z,86.90
2018-12-29T08:01:38.311Z,86.70
2018-12-29T08:04:07.907Z,86.70
2018-12-29T08:06:37.527Z,86.60
2018-12-29T08:09:07.980Z,87.10
2018-12-29T08:11:37.591Z,86.90
2018-12-29T08:14:07.187Z,86.70
2018-12-29T08:16:36.801Z,86.60
2018-12-29T08:19:06.397Z,86.70
2018-12-29T08:21:36.016Z,86.40
2018-12-29T08:24:05.642Z,87.10
2018-12-29T08:26:35.323Z,86.80
2018-12-29T08:29:04.935Z,86.50
2018-12-29T08:31:35.611Z,86.90
2018-12-29T08:34:06.948Z,87.20
2018-12-29T08:36:36.707Z,86.50
2018-12-29T08:39:06.385Z,86.80
2018-12-29T08:41:35.983Z,86.30
2018-12-29T08:44:05.613Z,85.70
2018-12-29T08:46:35.215Z,85.00
2018-12-29T08:49:04.827Z,85.00
2018-12-29T08:51:34.433Z,85.40
2018-12-29T08:54:04.047Z,84.90
2018-12-29T08:56:33.660Z,86.10
2018-12-29T08:59:03.274Z,85.30
2018-12-29T09:01:32.872Z,85.20
2018-12-29T09:04:02.481Z,85.20
2018-12-29T09:06:32.082Z,85.80
2018-12-29T09:09:01.733Z,85.80
2018-12-29T09:11:32.511Z,85.70
2018-12-29T09:14:02.121Z,85.40
2018-12-29T09:16:31.794Z,85.50
2018-12-29T09:19:02.475Z,85.70
2018-12-29T09:21:32.078Z,85.70
2018-12-29T09:24:01.689Z,85.50
2018-12-29T09:26:31.291Z,86.20
2018-12-29T09:29:00.887Z,85.70
2018-12-29T09:31:30.494Z,85.60
2018-12-29T09:34:00.110Z,85.60
2018-12-29T09:36:29.768Z,85.90
2018-12-29T09:38:59.375Z,85.90
2018-12-29T09:41:28.972Z,85.50
2018-12-29T09:43:58.605Z,85.70
2018-12-29T09:46:28.268Z,85.50
2018-12-29T09:48:57.900Z,86.10
2018-12-29T09:51:27.577Z,85.80
2018-12-29T09:53:57.179Z,85.60
2018-12-29T09:56:26.798Z,85.40
2018-12-29T09:58:56.412Z,84.70
2018-12-29T10:01:26.015Z,85.20
2018-12-29T10:03:55.617Z,85.40
2018-12-29T10:06:25.229Z,85.30
2018-12-29T10:08:54.831Z,85.50
2018-12-29T10:11:24.455Z,85.60
2018-12-29T10:13:54.051Z,86.20
2018-12-29T10:16:23.668Z,85.40
2018-12-29T10:18:53.267Z,84.90
2018-12-29T10:21:22.889Z,85.00
2018-12-29T10:23:52.499Z,84.90
2018-12-29T10:26:22.102Z,84.70
2018-12-29T10:28:51.703Z,84.60
2018-12-29T10:31:21.326Z,84.70
2018-12-29T10:33:50.941Z,84.70
2018-12-29T10:36:20.548Z,84.40
2018-12-29T10:38:50.160Z,84.20
2018-12-29T10:41:19.783Z,84.30
2018-12-29T10:43:49.399Z,84.10
2018-12-29T10:46:19.003Z,84.00
2018-12-29T10:48:48.611Z,83.80
2018-12-29T10:51:18.287Z,83.80
2018-12-29T10:53:47.899Z,83.60
2018-12-29T10:56:17.499Z,83.80
2018-12-29T10:58:47.129Z,83.70
2018-12-29T11:01:16.723Z,83.60
2018-12-29T11:03:46.319Z,83.40
2018-12-29T11:06:15.927Z,83.50
2018-12-29T11:08:45.535Z,83.90
2018-12-29T11:11:15.143Z,83.70
2018-12-29T11:13:44.750Z,84.50
2018-12-29T11:16:14.799Z,83.90
2018-12-29T11:18:44.396Z,83.60
2018-12-29T11:21:14.005Z,84.10
2018-12-29T11:23:43.600Z,84.10
2018-12-29T11:26:14.281Z,83.80
2018-12-29T11:28:43.883Z,84.30
2018-12-29T11:31:13.490Z,83.60
2018-12-29T11:33:43.090Z,83.40
2018-12-29T11:36:12.703Z,83.60
2018-12-29T11:38:42.314Z,83.90
2018-12-29T11:41:11.923Z,83.70
2018-12-29T11:43:41.527Z,84.00
2018-12-29T11:46:11.135Z,83.80
2018-12-29T11:48:40.723Z,83.50
2018-12-29T11:51:10.343Z,83.80
2018-12-29T11:53:39.957Z,83.30
2018-12-29T11:56:09.573Z,83.10
2018-12-29T11:58:39.195Z,83.20
2018-12-29T12:01:08.817Z,83.20
2018-12-29T12:03:38.807Z,83.60
2018-12-29T12:06:08.425Z,83.40
2018-12-29T12:08:38.047Z,83.40
2018-12-29T12:11:07.653Z,83.60
2018-12-29T12:13:37.275Z,83.00
2018-12-29T12:16:06.963Z,83.20
2018-12-29T12:18:36.574Z,82.80
2018-12-29T12:21:06.199Z,83.00
2018-12-29T12:23:35.864Z,83.20
2018-12-29T12:26:05.861Z,82.50
2018-12-29T12:28:35.471Z,82.80
2018-12-29T12:31:05.084Z,82.90
2018-12-29T12:33:34.843Z,82.60
2018-12-29T12:36:04.459Z,82.60
2018-12-29T12:38:34.234Z,83.00
2018-12-29T12:41:03.858Z,82.20
2018-12-29T12:43:35.067Z,82.00
2018-12-29T12:46:05.123Z,81.50
2018-12-29T12:48:34.762Z,81.50
2018-12-29T12:51:04.756Z,81.10
2018-12-29T12:53:34.358Z,80.90
2018-12-29T12:56:04.039Z,81.10
2018-12-29T12:58:33.647Z,80.70
2018-12-29T13:01:03.627Z,80.60
2018-12-29T13:03:33.855Z,79.50
2018-12-29T13:06:03.526Z,79.30
2018-12-29T13:08:33.135Z,78.30
2018-12-29T13:11:02.827Z,77.00
2018-12-29T13:13:32.444Z,78.20
2018-12-29T13:16:02.063Z,77.10
2018-12-29T13:18:31.687Z,76.90
2018-12-29T13:21:02.938Z,76.70
2018-12-29T13:23:32.812Z,76.70
2018-12-29T13:26:02.417Z,75.80
2018-12-29T13:28:32.052Z,76.10
2018-12-29T13:31:01.672Z,76.10
2018-12-29T13:33:31.356Z,75.80
2018-12-29T13:36:00.972Z,75.40
2018-12-29T13:38:30.970Z,75.30
2018-12-29T13:41:00.575Z,75.60
2018-12-29T13:43:30.187Z,75.30
2018-12-29T13:45:59.813Z,75.20
2018-12-29T13:48:29.415Z,74.90
2018-12-29T13:50:59.997Z,75.10
2018-12-29T13:53:29.608Z,75.00
2018-12-29T13:56:00.872Z,75.00
2018-12-29T13:58:30.498Z,74.70
2018-12-29T14:01:00.380Z,74.30
2018-12-29T14:03:30.028Z,74.30
2018-12-29T14:05:59.631Z,74.40
2018-12-29T14:08:29.231Z,74.50
2018-12-29T14:10:58.852Z,74.70
2018-12-29T14:13:28.450Z,74.60
2018-12-29T14:15:58.076Z,74.80
2018-12-29T14:18:28.299Z,74.80
2018-12-29T14:20:58.151Z,74.90
2018-12-29T14:23:27.831Z,75.00
2018-12-29T14:25:58.428Z,75.00
2018-12-29T14:28:28.035Z,74.90
2018-12-29T14:30:57.656Z,75.00
2018-12-29T14:33:27.268Z,74.90
2018-12-29T14:35:56.873Z,74.80
2018-12-29T14:38:26.476Z,74.90
2018-12-29T14:40:56.086Z,74.80
2018-12-29T14:43:25.692Z,75.00
2018-12-29T14:45:55.702Z,75.00
2018-12-29T14:48:25.356Z,74.60
2018-12-29T14:50:55.148Z,74.80
2018-12-29T14:53:24.840Z,75.30
2018-12-29T14:55:54.454Z,75.20
2018-12-29T14:58:24.050Z,75.50
2018-12-29T15:00:55.290Z,75.20
2018-12-29T15:03:24.966Z,75.20
2018-12-29T15:05:54.565Z,75.00
2018-12-29T15:08:24.632Z,75.10
2018-12-29T15:10:54.401Z,75.20
2018-12-29T15:13:24.562Z,75.30
2018-12-29T15:15:54.229Z,75.30
2018-12-29T15:18:24.315Z,75.50
2018-12-29T15:20:54.306Z,75.60
2018-12-29T15:23:23.981Z,75.50
2018-12-29T15:25:53.652Z,75.80
2018-12-29T15:28:23.338Z,75.70
2018-12-29T15:30:53.020Z,75.60
2018-12-29T15:33:22.649Z,76.00
2018-12-29T15:35:52.398Z,76.30
2018-12-29T15:38:24.565Z,76.30
2018-12-29T15:40:53.453Z,76.50
2018-12-29T15:43:23.039Z,76.60
2018-12-29T15:45:52.731Z,76.30
2018-12-29T15:48:22.695Z,77.00
2018-12-29T15:50:52.464Z,77.10
2018-12-29T15:53:22.089Z,77.90
2018-12-29T15:55:51.715Z,77.80
2018-12-29T15:58:21.665Z,77.80
2018-12-29T16:00:51.347Z,78.10
2018-12-29T16:03:20.936Z,78.60
2018-12-29T16:05:51.036Z,78.70
2018-12-29T16:08:20.667Z,78.60
2018-12-29T16:10:50.340Z,79.80
2018-12-29T16:13:20.002Z,80.20
2018-12-29T16:15:49.587Z,83.10
2018-12-29T16:18:19.605Z,85.10
2018-12-29T16:20:53.598Z,86.20
2018-12-29T16:23:39.997Z,85.50
2018-12-29T16:26:12.899Z,86.50
2018-12-29T16:28:40.972Z,87.20
2018-12-29T16:31:11.043Z,87.80
2018-12-29T16:33:41.721Z,87.80
2018-12-29T16:36:11.802Z,89.10
2018-12-29T16:38:42.569Z,89.90
2018-12-29T16:41:12.252Z,90.30
2018-12-29T16:43:41.893Z,90.20
2018-12-29T16:46:11.573Z,90.20
2018-12-29T16:48:41.251Z,90.30
2018-12-29T16:51:10.869Z,90.30
2018-12-29T16:53:40.740Z,90.30
2018-12-29T16:56:10.347Z,90.30
2018-12-29T16:58:39.969Z,90.90
2018-12-29T17:01:09.605Z,91.10
2018-12-29T17:03:40.405Z,90.70
2018-12-29T17:06:10.113Z,91.40
2018-12-29T17:08:39.796Z,91.40
2018-12-29T17:11:09.405Z,91.30
2018-12-29T17:13:39.380Z,91.50
2018-12-29T17:16:08.993Z,92.20
2018-12-29T17:18:38.595Z,92.60
2018-12-29T17:21:08.504Z,92.80
2018-12-29T17:23:38.174Z,92.20
2018-12-29T17:26:07.783Z,92.50
2018-12-29T17:28:37.763Z,92.00
2018-12-29T17:31:07.372Z,91.70
2018-12-29T17:33:37.328Z,91.60
2018-12-29T17:36:07.063Z,91.70
2018-12-29T17:38:36.678Z,91.10
2018-12-29T17:41:06.683Z,91.20
2018-12-29T17:43:36.293Z,90.70
2018-12-29T17:46:05.904Z,90.50
2018-12-29T17:48:35.605Z,90.40
2018-12-29T17:51:05.236Z,90.10
2018-12-29T17:53:35.239Z,90.20
2018-12-29T17:56:04.848Z,89.70
2018-12-29T17:58:34.467Z,88.90
2018-12-29T18:01:04.071Z,88.80
2018-12-29T18:03:33.700Z,88.60
2018-12-29T18:06:03.377Z,88.60
2018-12-29T18:08:32.985Z,88.30
2018-12-29T18:11:02.620Z,88.60
2018-12-29T18:13:32.292Z,88.40
2018-12-29T18:16:01.968Z,88.40
2018-12-29T18:18:31.644Z,89.20
2018-12-29T18:21:01.260Z,87.60
2018-12-29T18:23:31.152Z,87.50
2018-12-29T18:26:00.935Z,87.50
2018-12-29T18:28:31.053Z,87.40
2018-12-29T18:31:03.684Z,87.50
2018-12-29T18:33:37.239Z,87.40
2018-12-29T18:36:04.675Z,87.30
2018-12-29T18:38:34.322Z,87.40
2018-12-29T18:41:03.959Z,87.70
2018-12-29T18:43:33.581Z,87.50
2018-12-29T18:46:03.268Z,87.30
2018-12-29T18:48:32.909Z,87.30
2018-12-29T18:51:02.551Z,87.60
2018-12-29T18:53:32.225Z,87.20
2018-12-29T18:56:01.861Z,87.40
2018-12-29T18:58:31.565Z,87.50
2018-12-29T19:01:01.331Z,87.50
2018-12-29T19:03:30.973Z,87.40
2018-12-29T19:06:00.966Z,87.40
2018-12-29T19:08:30.580Z,87.60
2018-12-29T19:11:00.220Z,87.40
2018-12-29T19:13:30.150Z,87.50
2018-12-29T19:16:00.136Z,87.50
2018-12-29T19:18:29.904Z,87.80
2018-12-29T19:20:59.530Z,87.90
2018-12-29T19:23:29.592Z,87.70
2018-12-29T19:25:59.764Z,87.50
2018-12-29T19:28:29.749Z,87.90
2018-12-29T19:30:59.542Z,87.90
2018-12-29T19:33:29.782Z,87.90
2018-12-29T19:35:59.884Z,87.90
2018-12-29T19:38:29.578Z,88.00
2018-12-29T19:40:59.202Z,88.10
2018-12-29T19:43:29.188Z,87.70
2018-12-29T19:45:58.812Z,87.70
2018-12-29T19:48:28.516Z,87.80
2018-12-29T19:50:58.627Z,87.80
2018-12-29T19:53:28.508Z,87.60
2018-12-29T19:55:58.210Z,87.70
2018-12-29T19:58:27.962Z,87.80
2018-12-29T20:00:57.580Z,87.70
2018-12-29T20:03:27.265Z,87.90
2018-12-29T20:05:56.866Z,88.00
2018-12-29T20:08:26.488Z,87.90
2018-12-29T20:10:56.108Z,87.90
2018-12-29T20:13:25.864Z,88.00
2018-12-29T20:15:55.478Z,88.20
2018-12-29T20:18:25.083Z,88.30
2018-12-29T20:20:54.684Z,88.40
2018-12-29T20:23:24.379Z,87.80
2018-12-29T20:25:54.002Z,87.70
2018-12-29T20:28:23.614Z,87.30
2018-12-29T20:30:53.227Z,87.50
2018-12-29T20:33:24.053Z,87.50
2018-12-29T20:35:53.664Z,87.20
2018-12-29T20:38:23.279Z,87.10
2018-12-29T20:40:52.907Z,87.10
2018-12-29T20:43:22.505Z,87.30
2018-12-29T20:45:52.500Z,87.50
2018-12-29T20:48:22.130Z,87.10
2018-12-29T20:50:51.743Z,87.30
2018-12-29T20:53:21.335Z,87.10
2018-12-29T20:55:50.968Z,87.20
2018-12-29T20:58:20.968Z,87.00
2018-12-29T21:00:50.587Z,87.00
2018-12-29T21:03:20.268Z,87.00
2018-12-29T21:05:49.904Z,87.00
2018-12-29T21:08:19.516Z,86.90
2018-12-29T21:10:49.407Z,86.70
2018-12-29T21:13:19.017Z,86.50
2018-12-29T21:15:48.841Z,86.50
2018-12-29T21:18:18.515Z,86.50
2018-12-29T21:20:48.216Z,86.60
2018-12-29T21:23:17.923Z,86.40
2018-12-29T21:25:47.532Z,86.50
2018-12-29T21:28:17.159Z,87.30
2018-12-29T21:30:46.927Z,86.30
2018-12-29T21:33:16.608Z,86.50
2018-12-29T21:35:46.233Z,86.40
2018-12-29T21:38:15.936Z,86.30
2018-12-29T21:40:45.575Z,86.30
2018-12-29T21:43:15.276Z,85.80
2018-12-29T21:45:45.072Z,85.90
2018-12-29T21:48:15.003Z,85.80
2018-12-29T21:50:44.639Z,85.80
2018-12-29T21:53:14.260Z,85.30
2018-12-29T21:55:43.892Z,85.00
2018-12-29T21:58:13.611Z,85.60
2018-12-29T22:00:43.218Z,84.60
2018-12-29T22:03:12.931Z,84.60
2018-12-29T22:05:42.640Z,84.40
2018-12-29T22:08:12.255Z,84.40
2018-12-29T22:10:41.869Z,84.20
2018-12-29T22:13:11.538Z,84.20
2018-12-29T22:15:41.544Z,84.10
2018-12-29T22:18:30.576Z,83.80
2018-12-29T22:21:00.211Z,82.70
2018-12-29T22:23:32.708Z,82.80
2018-12-29T22:26:02.417Z,82.10
2018-12-29T22:28:32.119Z,82.50
2018-12-29T22:31:01.830Z,83.10
2018-12-29T22:33:32.231Z,83.30
2018-12-29T22:36:01.839Z,83.40
2018-12-29T22:38:31.461Z,83.20
2018-12-29T22:41:01.079Z,82.20
2018-12-29T22:43:30.697Z,82.10
2018-12-29T22:46:00.304Z,81.60
2018-12-29T22:48:29.912Z,80.40
2018-12-29T22:50:59.525Z,78.30
2018-12-29T22:53:29.136Z,77.00
2018-12-29T22:55:58.767Z,76.50
2018-12-29T22:58:28.386Z,75.80
2018-12-29T23:00:57.992Z,75.30
2018-12-29T23:03:27.665Z,74.50
2018-12-29T23:05:57.286Z,74.90
2018-12-29T23:08:27.031Z,74.60
2018-12-29T23:10:57.025Z,74.20
2018-12-29T23:13:26.699Z,74.50
2018-12-29T23:15:56.355Z,74.20
2018-12-29T23:18:25.961Z,73.60
2018-12-29T23:20:55.601Z,73.50
2018-12-29T23:23:25.197Z,73.40
2018-12-29T23:25:55.094Z,73.00
2018-12-29T23:28:24.750Z,72.70
2018-12-29T23:30:54.753Z,73.00
2018-12-29T23:33:24.417Z,72.70
2018-12-29T23:35:54.027Z,73.00
2018-12-29T23:38:23.633Z,72.00
2018-12-29T23:40:53.299Z,71.60
2018-12-29T23:43:22.943Z,71.50
2018-12-29T23:45:52.537Z,71.00
2018-12-29T23:48:22.233Z,70.70
2018-12-29T23:51:05.311Z,70.50
2018-12-29T23:53:23.235Z,70.70
2018-12-29T23:55:53.244Z,70.90
2018-12-29T23:58:22.871Z,70.80
